sensor_id;sensor_type;location;lat;lon;timestamp;temperature;humidity
41926;DHT22;27615;51.826;5.692;2022-11-20T00:01:43;-1.60;95.70
41926;DHT22;27615;51.826;5.692;2022-11-20T00:04:10;-1.60;95.80
41926;DHT22;27615;51.826;5.692;2022-11-20T00:06:37;-1.60;95.90
41926;DHT22;27615;51.826;5.692;2022-11-20T00:09:02;-1.60;96.00
41926;DHT22;27615;51.826;5.692;2022-11-20T00:11:29;-1.60;96.00
41926;DHT22;27615;51.826;5.692;2022-11-20T00:13:57;-1.70;96.00
41926;DHT22;27615;51.826;5.692;2022-11-20T00:16:24;-1.70;96.10
41926;DHT22;27615;51.826;5.692;2022-11-20T00:18:50;-1.70;96.20
41926;DHT22;27615;51.826;5.692;2022-11-20T00:21:19;-1.70;96.20
41926;DHT22;27615;51.826;5.692;2022-11-20T00:23:45;-1.70;96.30
41926;DHT22;27615;51.826;5.692;2022-11-20T00:26:13;-1.70;96.30
41926;DHT22;27615;51.826;5.692;2022-11-20T00:28:39;-1.80;96.40
41926;DHT22;27615;51.826;5.692;2022-11-20T00:31:10;-1.80;96.40
41926;DHT22;27615;51.826;5.692;2022-11-20T00:33:36;-1.80;96.50
41926;DHT22;27615;51.826;5.692;2022-11-20T00:36:04;-1.80;96.50
41926;DHT22;27615;51.826;5.692;2022-11-20T00:38:31;-1.90;96.50
41926;DHT22;27615;51.826;5.692;2022-11-20T00:40:57;-1.90;96.60
41926;DHT22;27615;51.826;5.692;2022-11-20T00:43:24;-1.90;96.60
41926;DHT22;27615;51.826;5.692;2022-11-20T00:45:50;-1.90;96.60
41926;DHT22;27615;51.826;5.692;2022-11-20T00:48:15;-1.90;96.70
41926;DHT22;27615;51.826;5.692;2022-11-20T00:50:41;-1.90;96.70
41926;DHT22;27615;51.826;5.692;2022-11-20T00:53:07;-1.90;96.80
41926;DHT22;27615;51.826;5.692;2022-11-20T00:55:32;-2.00;96.80
41926;DHT22;27615;51.826;5.692;2022-11-20T00:57:58;-2.00;96.70
41926;DHT22;27615;51.826;5.692;2022-11-20T01:00:23;-2.00;96.80
41926;DHT22;27615;51.826;5.692;2022-11-20T01:02:49;-2.00;96.80
41926;DHT22;27615;51.826;5.692;2022-11-20T01:05:14;-2.00;96.90
41926;DHT22;27615;51.826;5.692;2022-11-20T01:07:40;-2.10;96.90
41926;DHT22;27615;51.826;5.692;2022-11-20T01:10:06;-2.10;96.90
41926;DHT22;27615;51.826;5.692;2022-11-20T01:12:31;-2.10;96.90
41926;DHT22;27615;51.826;5.692;2022-11-20T01:14:57;-2.10;97.00
41926;DHT22;27615;51.826;5.692;2022-11-20T01:17:22;-2.20;97.10
41926;DHT22;27615;51.826;5.692;2022-11-20T01:19:49;-2.10;97.20
41926;DHT22;27615;51.826;5.692;2022-11-20T01:22:15;-2.20;97.20
41926;DHT22;27615;51.826;5.692;2022-11-20T01:24:41;-2.20;97.20
41926;DHT22;27615;51.826;5.692;2022-11-20T01:27:06;-2.10;97.20
41926;DHT22;27615;51.826;5.692;2022-11-20T01:29:32;-2.20;97.20
41926;DHT22;27615;51.826;5.692;2022-11-20T01:31:57;-2.20;97.20
41926;DHT22;27615;51.826;5.692;2022-11-20T01:34:23;-2.30;97.30
41926;DHT22;27615;51.826;5.692;2022-11-20T01:36:49;-2.30;97.30
41926;DHT22;27615;51.826;5.692;2022-11-20T01:39:18;-2.30;97.40
41926;DHT22;27615;51.826;5.692;2022-11-20T01:41:46;-2.30;97.40
41926;DHT22;27615;51.826;5.692;2022-11-20T01:44:56;-2.30;97.70
41926;DHT22;27615;51.826;5.692;2022-11-20T01:50:03;-2.40;97.50
41926;DHT22;27615;51.826;5.692;2022-11-20T01:52:42;-2.40;97.50
41926;DHT22;27615;51.826;5.692;2022-11-20T01:55:19;-2.40;97.60
41926;DHT22;27615;51.826;5.692;2022-11-20T01:57:45;-2.40;97.70
41926;DHT22;27615;51.826;5.692;2022-11-20T02:00:15;-2.40;97.70
41926;DHT22;27615;51.826;5.692;2022-11-20T02:02:44;-2.50;97.70
41926;DHT22;27615;51.826;5.692;2022-11-20T02:05:28;-2.50;98.00
41926;DHT22;27615;51.826;5.692;2022-11-20T02:07:57;-2.40;97.90
41926;DHT22;27615;51.826;5.692;2022-11-20T02:10:24;-2.50;97.80
41926;DHT22;27615;51.826;5.692;2022-11-20T02:12:51;-2.50;97.90
41926;DHT22;27615;51.826;5.692;2022-11-20T02:15:35;-2.50;97.90
41926;DHT22;27615;51.826;5.692;2022-11-20T02:18:00;-2.60;98.00
41926;DHT22;27615;51.826;5.692;2022-11-20T02:20:26;-2.60;98.10
41926;DHT22;27615;51.826;5.692;2022-11-20T02:22:59;-2.60;98.20
41926;DHT22;27615;51.826;5.692;2022-11-20T02:25:27;-2.60;98.30
41926;DHT22;27615;51.826;5.692;2022-11-20T02:27:55;-2.60;98.30
41926;DHT22;27615;51.826;5.692;2022-11-20T02:30:21;-2.60;98.40
41926;DHT22;27615;51.826;5.692;2022-11-20T02:32:46;-2.60;98.40
41926;DHT22;27615;51.826;5.692;2022-11-20T02:37:45;-2.50;98.50
41926;DHT22;27615;51.826;5.692;2022-11-20T02:40:12;-2.60;98.50
41926;DHT22;27615;51.826;5.692;2022-11-20T02:42:38;-2.60;98.50
41926;DHT22;27615;51.826;5.692;2022-11-20T02:45:05;-2.60;98.50
41926;DHT22;27615;51.826;5.692;2022-11-20T02:47:30;-2.60;98.50
41926;DHT22;27615;51.826;5.692;2022-11-20T02:49:56;-2.60;98.60
41926;DHT22;27615;51.826;5.692;2022-11-20T02:52:22;-2.70;98.60
41926;DHT22;27615;51.826;5.692;2022-11-20T02:54:47;-2.70;98.70
41926;DHT22;27615;51.826;5.692;2022-11-20T02:57:13;-2.70;98.70
41926;DHT22;27615;51.826;5.692;2022-11-20T02:59:38;-2.70;98.80
41926;DHT22;27615;51.826;5.692;2022-11-20T03:02:04;-2.70;98.80
41926;DHT22;27615;51.826;5.692;2022-11-20T03:04:30;-2.70;98.80
41926;DHT22;27615;51.826;5.692;2022-11-20T03:06:55;-2.70;98.90
41926;DHT22;27615;51.826;5.692;2022-11-20T03:09:21;-2.70;98.90
41926;DHT22;27615;51.826;5.692;2022-11-20T03:11:46;-2.80;99.00
41926;DHT22;27615;51.826;5.692;2022-11-20T03:14:13;-2.70;99.10
41926;DHT22;27615;51.826;5.692;2022-11-20T03:16:38;-2.70;99.10
41926;DHT22;27615;51.826;5.692;2022-11-20T03:19:04;-2.70;99.20
41926;DHT22;27615;51.826;5.692;2022-11-20T03:21:29;-2.70;99.30
41926;DHT22;27615;51.826;5.692;2022-11-20T03:23:55;-2.70;99.30
41926;DHT22;27615;51.826;5.692;2022-11-20T03:26:25;-2.70;99.30
41926;DHT22;27615;51.826;5.692;2022-11-20T03:28:51;-2.70;99.40
41926;DHT22;27615;51.826;5.692;2022-11-20T03:31:20;-2.80;99.30
41926;DHT22;27615;51.826;5.692;2022-11-20T03:33:46;-2.80;99.50
41926;DHT22;27615;51.826;5.692;2022-11-20T03:36:13;-2.80;99.50
41926;DHT22;27615;51.826;5.692;2022-11-20T03:38:39;-2.80;99.50
41926;DHT22;27615;51.826;5.692;2022-11-20T03:41:19;-2.80;99.50
41926;DHT22;27615;51.826;5.692;2022-11-20T03:44:05;-2.80;99.50
41926;DHT22;27615;51.826;5.692;2022-11-20T03:46:31;-2.80;99.60
41926;DHT22;27615;51.826;5.692;2022-11-20T03:48:57;-2.90;99.60
41926;DHT22;27615;51.826;5.692;2022-11-20T03:51:24;-2.90;99.90
41926;DHT22;27615;51.826;5.692;2022-11-20T03:53:52;-2.90;99.60
41926;DHT22;27615;51.826;5.692;2022-11-20T03:56:20;-2.90;99.70
41926;DHT22;27615;51.826;5.692;2022-11-20T03:58:47;-2.90;99.70
41926;DHT22;27615;51.826;5.692;2022-11-20T04:01:18;-2.90;99.70
41926;DHT22;27615;51.826;5.692;2022-11-20T04:03:45;-2.90;99.80
41926;DHT22;27615;51.826;5.692;2022-11-20T04:06:11;-3.00;99.80
41926;DHT22;27615;51.826;5.692;2022-11-20T04:08:37;-3.00;99.80
41926;DHT22;27615;51.826;5.692;2022-11-20T04:11:10;-3.00;99.80
41926;DHT22;27615;51.826;5.692;2022-11-20T04:13:36;-3.00;99.80
41926;DHT22;27615;51.826;5.692;2022-11-20T04:16:02;-3.00;99.80
41926;DHT22;27615;51.826;5.692;2022-11-20T04:18:27;-3.00;99.80
41926;DHT22;27615;51.826;5.692;2022-11-20T04:20:53;-3.10;99.80
41926;DHT22;27615;51.826;5.692;2022-11-20T04:23:18;-3.10;99.90
41926;DHT22;27615;51.826;5.692;2022-11-20T04:25:44;-3.10;99.90
41926;DHT22;27615;51.826;5.692;2022-11-20T04:28:09;-3.10;99.90
41926;DHT22;27615;51.826;5.692;2022-11-20T04:30:35;-3.10;99.80
41926;DHT22;27615;51.826;5.692;2022-11-20T04:33:00;-3.10;99.90
41926;DHT22;27615;51.826;5.692;2022-11-20T04:35:26;-3.10;99.90
41926;DHT22;27615;51.826;5.692;2022-11-20T04:37:52;-3.10;99.90
41926;DHT22;27615;51.826;5.692;2022-11-20T04:40:17;-3.20;99.90
41926;DHT22;27615;51.826;5.692;2022-11-20T04:42:43;-3.20;99.90
41926;DHT22;27615;51.826;5.692;2022-11-20T04:45:08;-3.20;99.90
41926;DHT22;27615;51.826;5.692;2022-11-20T04:47:34;-3.20;99.90
41926;DHT22;27615;51.826;5.692;2022-11-20T04:49:59;-3.20;99.90
41926;DHT22;27615;51.826;5.692;2022-11-20T04:52:25;-3.20;99.90
41926;DHT22;27615;51.826;5.692;2022-11-20T04:54:50;-3.20;99.90
41926;DHT22;27615;51.826;5.692;2022-11-20T04:57:18;-3.20;99.90
41926;DHT22;27615;51.826;5.692;2022-11-20T04:59:43;-3.20;99.90
41926;DHT22;27615;51.826;5.692;2022-11-20T05:02:10;-3.20;99.90
41926;DHT22;27615;51.826;5.692;2022-11-20T05:04:35;-3.30;99.90
41926;DHT22;27615;51.826;5.692;2022-11-20T05:07:01;-3.30;99.90
41926;DHT22;27615;51.826;5.692;2022-11-20T05:09:26;-3.30;99.90
41926;DHT22;27615;51.826;5.692;2022-11-20T05:11:52;-3.40;99.90
41926;DHT22;27615;51.826;5.692;2022-11-20T05:14:17;-3.40;99.90
41926;DHT22;27615;51.826;5.692;2022-11-20T05:16:43;-3.30;99.90
41926;DHT22;27615;51.826;5.692;2022-11-20T05:19:09;-3.40;99.90
41926;DHT22;27615;51.826;5.692;2022-11-20T05:21:34;-3.30;99.90
41926;DHT22;27615;51.826;5.692;2022-11-20T05:24:00;-3.40;99.90
41926;DHT22;27615;51.826;5.692;2022-11-20T05:26:25;-3.40;99.90
41926;DHT22;27615;51.826;5.692;2022-11-20T05:28:51;-3.30;99.90
41926;DHT22;27615;51.826;5.692;2022-11-20T05:31:22;-3.30;99.90
41926;DHT22;27615;51.826;5.692;2022-11-20T05:33:48;-3.30;99.90
41926;DHT22;27615;51.826;5.692;2022-11-20T05:36:14;-3.40;99.90
41926;DHT22;27615;51.826;5.692;2022-11-20T05:38:41;-3.40;99.90
41926;DHT22;27615;51.826;5.692;2022-11-20T05:41:15;-3.50;99.90
41926;DHT22;27615;51.826;5.692;2022-11-20T05:43:43;-3.50;99.90
41926;DHT22;27615;51.826;5.692;2022-11-20T05:46:11;-3.50;99.90
41926;DHT22;27615;51.826;5.692;2022-11-20T05:48:38;-3.50;99.90
41926;DHT22;27615;51.826;5.692;2022-11-20T05:51:07;-3.50;99.90
41926;DHT22;27615;51.826;5.692;2022-11-20T05:53:35;-3.50;99.90
41926;DHT22;27615;51.826;5.692;2022-11-20T05:56:03;-3.50;99.90
41926;DHT22;27615;51.826;5.692;2022-11-20T05:58:29;-3.50;99.90
41926;DHT22;27615;51.826;5.692;2022-11-20T06:01:02;-3.50;99.90
41926;DHT22;27615;51.826;5.692;2022-11-20T06:03:28;-3.50;99.90
41926;DHT22;27615;51.826;5.692;2022-11-20T06:05:53;-3.50;99.90
41926;DHT22;27615;51.826;5.692;2022-11-20T06:08:19;-3.60;99.90
41926;DHT22;27615;51.826;5.692;2022-11-20T06:10:44;-3.60;99.90
41926;DHT22;27615;51.826;5.692;2022-11-20T06:13:10;-3.70;99.90
41926;DHT22;27615;51.826;5.692;2022-11-20T06:15:35;-3.70;99.90
41926;DHT22;27615;51.826;5.692;2022-11-20T06:18:01;-3.70;99.90
41926;DHT22;27615;51.826;5.692;2022-11-20T06:20:26;-3.60;99.90
41926;DHT22;27615;51.826;5.692;2022-11-20T06:22:52;-3.60;99.90
41926;DHT22;27615;51.826;5.692;2022-11-20T06:25:17;-3.60;99.90
41926;DHT22;27615;51.826;5.692;2022-11-20T06:27:43;-3.60;99.90
41926;DHT22;27615;51.826;5.692;2022-11-20T06:30:09;-3.50;99.90
41926;DHT22;27615;51.826;5.692;2022-11-20T06:32:34;-3.50;99.90
41926;DHT22;27615;51.826;5.692;2022-11-20T06:35:00;-3.50;99.90
41926;DHT22;27615;51.826;5.692;2022-11-20T06:37:25;-3.60;99.90
41926;DHT22;27615;51.826;5.692;2022-11-20T06:39:51;-3.60;99.90
41926;DHT22;27615;51.826;5.692;2022-11-20T06:42:16;-3.60;99.90
41926;DHT22;27615;51.826;5.692;2022-11-20T06:44:42;-3.60;99.90
41926;DHT22;27615;51.826;5.692;2022-11-20T06:47:07;-3.60;99.90
41926;DHT22;27615;51.826;5.692;2022-11-20T06:49:33;-3.60;99.90
41926;DHT22;27615;51.826;5.692;2022-11-20T06:51:59;-3.60;99.90
41926;DHT22;27615;51.826;5.692;2022-11-20T06:54:25;-3.60;99.90
41926;DHT22;27615;51.826;5.692;2022-11-20T06:56:50;-3.60;99.90
41926;DHT22;27615;51.826;5.692;2022-11-20T06:59:16;-3.60;99.90
41926;DHT22;27615;51.826;5.692;2022-11-20T07:01:41;-3.60;99.90
41926;DHT22;27615;51.826;5.692;2022-11-20T07:04:07;-3.60;99.90
41926;DHT22;27615;51.826;5.692;2022-11-20T07:06:32;-3.60;99.90
41926;DHT22;27615;51.826;5.692;2022-11-20T07:08:58;-3.60;99.90
41926;DHT22;27615;51.826;5.692;2022-11-20T07:11:24;-3.60;99.90
41926;DHT22;27615;51.826;5.692;2022-11-20T07:13:50;-3.70;99.90
41926;DHT22;27615;51.826;5.692;2022-11-20T07:16:15;-3.60;99.90
41926;DHT22;27615;51.826;5.692;2022-11-20T07:18:41;-3.70;99.90
41926;DHT22;27615;51.826;5.692;2022-11-20T07:21:09;-3.70;99.90
41926;DHT22;27615;51.826;5.692;2022-11-20T07:23:35;-3.60;99.90
41926;DHT22;27615;51.826;5.692;2022-11-20T07:26:09;-3.60;99.90
41926;DHT22;27615;51.826;5.692;2022-11-20T07:28:35;-3.60;99.90
41926;DHT22;27615;51.826;5.692;2022-11-20T07:31:01;-3.60;99.90
41926;DHT22;27615;51.826;5.692;2022-11-20T07:33:27;-3.60;99.90
41926;DHT22;27615;51.826;5.692;2022-11-20T07:35:52;-3.60;99.90
41926;DHT22;27615;51.826;5.692;2022-11-20T07:38:18;-3.50;99.90
41926;DHT22;27615;51.826;5.692;2022-11-20T07:40:43;-3.50;99.90
41926;DHT22;27615;51.826;5.692;2022-11-20T07:43:09;-3.50;99.90
41926;DHT22;27615;51.826;5.692;2022-11-20T07:45:34;-3.50;99.90
41926;DHT22;27615;51.826;5.692;2022-11-20T07:48:00;-3.40;99.90
41926;DHT22;27615;51.826;5.692;2022-11-20T07:50:26;-3.40;99.90
41926;DHT22;27615;51.826;5.692;2022-11-20T07:52:51;-3.30;99.90
41926;DHT22;27615;51.826;5.692;2022-11-20T07:55:17;-3.30;99.90
41926;DHT22;27615;51.826;5.692;2022-11-20T07:57:43;-3.30;99.90
41926;DHT22;27615;51.826;5.692;2022-11-20T08:00:10;-3.20;99.90
41926;DHT22;27615;51.826;5.692;2022-11-20T08:02:40;-3.10;99.90
41926;DHT22;27615;51.826;5.692;2022-11-20T08:05:09;-3.10;99.90
41926;DHT22;27615;51.826;5.692;2022-11-20T08:07:40;-3.00;99.90
41926;DHT22;27615;51.826;5.692;2022-11-20T08:10:07;-2.90;99.90
41926;DHT22;27615;51.826;5.692;2022-11-20T08:12:33;-2.90;99.90
41926;DHT22;27615;51.826;5.692;2022-11-20T08:15:17;-2.90;99.90
41926;DHT22;27615;51.826;5.692;2022-11-20T08:17:43;-2.80;99.90
41926;DHT22;27615;51.826;5.692;2022-11-20T08:20:08;-2.80;99.90
41926;DHT22;27615;51.826;5.692;2022-11-20T08:22:34;-2.70;99.90
41926;DHT22;27615;51.826;5.692;2022-11-20T08:25:00;-2.60;99.90
41926;DHT22;27615;51.826;5.692;2022-11-20T08:27:25;-2.60;99.90
41926;DHT22;27615;51.826;5.692;2022-11-20T08:29:51;-2.50;99.90
41926;DHT22;27615;51.826;5.692;2022-11-20T08:32:16;-2.50;99.90
41926;DHT22;27615;51.826;5.692;2022-11-20T08:34:41;-2.40;99.90
41926;DHT22;27615;51.826;5.692;2022-11-20T08:37:07;-2.30;99.90
41926;DHT22;27615;51.826;5.692;2022-11-20T08:39:32;-2.20;99.90
41926;DHT22;27615;51.826;5.692;2022-11-20T08:41:58;-2.20;99.90
41926;DHT22;27615;51.826;5.692;2022-11-20T08:44:24;-2.10;99.90
41926;DHT22;27615;51.826;5.692;2022-11-20T08:46:49;-2.00;99.90
41926;DHT22;27615;51.826;5.692;2022-11-20T08:49:15;-1.90;99.90
41926;DHT22;27615;51.826;5.692;2022-11-20T08:51:41;-1.90;99.90
41926;DHT22;27615;51.826;5.692;2022-11-20T08:54:07;-1.80;99.90
41926;DHT22;27615;51.826;5.692;2022-11-20T08:56:33;-1.70;99.90
41926;DHT22;27615;51.826;5.692;2022-11-20T08:58:59;-1.60;99.90
41926;DHT22;27615;51.826;5.692;2022-11-20T09:01:25;-1.50;99.90
41926;DHT22;27615;51.826;5.692;2022-11-20T09:03:50;-1.50;99.90
41926;DHT22;27615;51.826;5.692;2022-11-20T09:06:16;-1.40;99.90
41926;DHT22;27615;51.826;5.692;2022-11-20T09:08:42;-1.40;99.90
41926;DHT22;27615;51.826;5.692;2022-11-20T09:11:08;-1.30;99.90
41926;DHT22;27615;51.826;5.692;2022-11-20T09:13:35;-1.20;99.90
41926;DHT22;27615;51.826;5.692;2022-11-20T09:16:06;-1.20;99.90
41926;DHT22;27615;51.826;5.692;2022-11-20T09:18:33;-1.10;99.90
41926;DHT22;27615;51.826;5.692;2022-11-20T09:21:00;-1.10;99.90
41926;DHT22;27615;51.826;5.692;2022-11-20T09:23:26;-1.00;99.90
41926;DHT22;27615;51.826;5.692;2022-11-20T09:25:52;-0.90;99.90
41926;DHT22;27615;51.826;5.692;2022-11-20T09:28:20;-0.90;99.90
41926;DHT22;27615;51.826;5.692;2022-11-20T09:30:46;-0.80;99.90
41926;DHT22;27615;51.826;5.692;2022-11-20T09:33:11;-0.80;99.90
41926;DHT22;27615;51.826;5.692;2022-11-20T09:35:37;-0.70;99.90
41926;DHT22;27615;51.826;5.692;2022-11-20T09:38:08;-0.60;99.90
41926;DHT22;27615;51.826;5.692;2022-11-20T09:40:39;-0.50;99.90
41926;DHT22;27615;51.826;5.692;2022-11-20T09:43:15;-0.50;99.90
41926;DHT22;27615;51.826;5.692;2022-11-20T09:46:08;-0.30;99.90
41926;DHT22;27615;51.826;5.692;2022-11-20T09:51:59;-0.10;99.90
41926;DHT22;27615;51.826;5.692;2022-11-20T09:54:32;0.00;99.90
41926;DHT22;27615;51.826;5.692;2022-11-20T09:57:19;0.10;99.90
41926;DHT22;27615;51.826;5.692;2022-11-20T09:59:46;0.30;99.90
41926;DHT22;27615;51.826;5.692;2022-11-20T10:05:12;0.50;99.90
41926;DHT22;27615;51.826;5.692;2022-11-20T10:10:49;0.70;99.90
41926;DHT22;27615;51.826;5.692;2022-11-20T10:27:23;0.90;99.90
41926;DHT22;27615;51.826;5.692;2022-11-20T10:30:06;1.00;99.90
41926;DHT22;27615;51.826;5.692;2022-11-20T10:32:37;1.00;99.90
41926;DHT22;27615;51.826;5.692;2022-11-20T10:35:19;1.00;99.90
41926;DHT22;27615;51.826;5.692;2022-11-20T10:37:51;1.00;99.90
41926;DHT22;27615;51.826;5.692;2022-11-20T10:40:38;1.10;99.90
41926;DHT22;27615;51.826;5.692;2022-11-20T10:43:33;1.10;99.90
41926;DHT22;27615;51.826;5.692;2022-11-20T10:46:05;1.10;99.90
41926;DHT22;27615;51.826;5.692;2022-11-20T10:48:34;1.10;99.90
41926;DHT22;27615;51.826;5.692;2022-11-20T10:54:42;1.20;99.90
41926;DHT22;27615;51.826;5.692;2022-11-20T10:57:49;1.30;99.90
41926;DHT22;27615;51.826;5.692;2022-11-20T11:00:17;1.30;99.90
41926;DHT22;27615;51.826;5.692;2022-11-20T11:02:50;1.40;99.90
41926;DHT22;27615;51.826;5.692;2022-11-20T11:08:12;1.60;99.90
41926;DHT22;27615;51.826;5.692;2022-11-20T11:10:59;1.60;99.90
41926;DHT22;27615;51.826;5.692;2022-11-20T11:13:28;1.70;99.90
41926;DHT22;27615;51.826;5.692;2022-11-20T11:15:54;1.70;99.90
41926;DHT22;27615;51.826;5.692;2022-11-20T11:18:36;1.80;99.90
41926;DHT22;27615;51.826;5.692;2022-11-20T11:21:03;1.90;99.90
41926;DHT22;27615;51.826;5.692;2022-11-20T11:23:40;2.00;99.90
41926;DHT22;27615;51.826;5.692;2022-11-20T11:26:23;2.10;99.90
41926;DHT22;27615;51.826;5.692;2022-11-20T11:31:28;2.30;99.90
41926;DHT22;27615;51.826;5.692;2022-11-20T11:34:16;2.30;99.90
41926;DHT22;27615;51.826;5.692;2022-11-20T11:36:49;2.40;99.90
41926;DHT22;27615;51.826;5.692;2022-11-20T11:39:19;2.50;99.90
41926;DHT22;27615;51.826;5.692;2022-11-20T11:41:46;2.60;99.90
41926;DHT22;27615;51.826;5.692;2022-11-20T11:44:15;2.60;99.90
41926;DHT22;27615;51.826;5.692;2022-11-20T11:47:02;2.50;99.90
41926;DHT22;27615;51.826;5.692;2022-11-20T11:49:28;2.50;99.90
41926;DHT22;27615;51.826;5.692;2022-11-20T11:52:16;2.50;99.90
41926;DHT22;27615;51.826;5.692;2022-11-20T11:54:53;2.40;99.90
41926;DHT22;27615;51.826;5.692;2022-11-20T11:57:29;2.40;99.90
41926;DHT22;27615;51.826;5.692;2022-11-20T12:00:00;2.40;99.90
41926;DHT22;27615;51.826;5.692;2022-11-20T12:02:54;2.40;99.90
41926;DHT22;27615;51.826;5.692;2022-11-20T12:05:40;2.40;99.90
41926;DHT22;27615;51.826;5.692;2022-11-20T12:08:31;2.40;99.90
41926;DHT22;27615;51.826;5.692;2022-11-20T12:11:13;2.50;99.90
41926;DHT22;27615;51.826;5.692;2022-11-20T12:13:55;2.50;99.90
41926;DHT22;27615;51.826;5.692;2022-11-20T12:16:23;2.40;99.90
41926;DHT22;27615;51.826;5.692;2022-11-20T12:18:51;2.40;99.90
41926;DHT22;27615;51.826;5.692;2022-11-20T12:26:39;2.50;99.90
41926;DHT22;27615;51.826;5.692;2022-11-20T12:29:19;2.50;99.90
41926;DHT22;27615;51.826;5.692;2022-11-20T12:38:26;2.70;99.90
41926;DHT22;27615;51.826;5.692;2022-11-20T12:41:21;2.70;99.90
41926;DHT22;27615;51.826;5.692;2022-11-20T12:52:48;2.60;99.90
41926;DHT22;27615;51.826;5.692;2022-11-20T12:55:33;2.60;99.90
41926;DHT22;27615;51.826;5.692;2022-11-20T13:04:15;2.90;99.90
41926;DHT22;27615;51.826;5.692;2022-11-20T13:06:44;2.90;99.90
41926;DHT22;27615;51.826;5.692;2022-11-20T13:09:14;3.00;99.90
41926;DHT22;27615;51.826;5.692;2022-11-20T13:17:36;3.10;99.90
41926;DHT22;27615;51.826;5.692;2022-11-20T13:20:06;3.00;99.90
41926;DHT22;27615;51.826;5.692;2022-11-20T13:22:52;3.00;99.90
41926;DHT22;27615;51.826;5.692;2022-11-20T13:25:27;3.00;99.90
41926;DHT22;27615;51.826;5.692;2022-11-20T13:27:54;3.10;99.90
41926;DHT22;27615;51.826;5.692;2022-11-20T13:30:22;3.00;99.90
41926;DHT22;27615;51.826;5.692;2022-11-20T13:35:29;3.10;99.90
41926;DHT22;27615;51.826;5.692;2022-11-20T13:40:34;3.20;99.90
41926;DHT22;27615;51.826;5.692;2022-11-20T13:45:58;3.20;99.90
41926;DHT22;27615;51.826;5.692;2022-11-20T13:48:29;3.30;99.90
41926;DHT22;27615;51.826;5.692;2022-11-20T13:54:22;3.30;99.90
41926;DHT22;27615;51.826;5.692;2022-11-20T14:02:14;3.30;99.90
41926;DHT22;27615;51.826;5.692;2022-11-20T14:04:44;3.30;99.90
41926;DHT22;27615;51.826;5.692;2022-11-20T14:07:10;3.30;99.90
41926;DHT22;27615;51.826;5.692;2022-11-20T14:09:36;3.30;99.90
41926;DHT22;27615;51.826;5.692;2022-11-20T14:12:03;3.40;99.90
41926;DHT22;27615;51.826;5.692;2022-11-20T14:14:30;3.40;99.90
41926;DHT22;27615;51.826;5.692;2022-11-20T14:19:47;3.40;99.90
41926;DHT22;27615;51.826;5.692;2022-11-20T14:22:17;3.30;99.90
41926;DHT22;27615;51.826;5.692;2022-11-20T14:24:48;3.40;99.90
41926;DHT22;27615;51.826;5.692;2022-11-20T14:27:19;3.40;99.90
41926;DHT22;27615;51.826;5.692;2022-11-20T14:29:50;3.40;99.90
41926;DHT22;27615;51.826;5.692;2022-11-20T14:32:17;3.50;99.90
41926;DHT22;27615;51.826;5.692;2022-11-20T14:34:46;3.50;99.90
41926;DHT22;27615;51.826;5.692;2022-11-20T14:37:18;3.50;99.90
41926;DHT22;27615;51.826;5.692;2022-11-20T14:39:50;3.50;99.90
41926;DHT22;27615;51.826;5.692;2022-11-20T14:42:21;3.50;99.90
41926;DHT22;27615;51.826;5.692;2022-11-20T14:44:48;3.50;99.90
41926;DHT22;27615;51.826;5.692;2022-11-20T14:47:27;3.50;99.90
41926;DHT22;27615;51.826;5.692;2022-11-20T14:49:55;3.50;99.90
41926;DHT22;27615;51.826;5.692;2022-11-20T14:52:23;3.50;99.90
41926;DHT22;27615;51.826;5.692;2022-11-20T14:54:51;3.50;99.90
41926;DHT22;27615;51.826;5.692;2022-11-20T15:02:42;3.70;99.90
41926;DHT22;27615;51.826;5.692;2022-11-20T15:05:08;3.60;99.90
41926;DHT22;27615;51.826;5.692;2022-11-20T15:07:36;3.60;99.90
41926;DHT22;27615;51.826;5.692;2022-11-20T15:10:05;3.60;99.90
41926;DHT22;27615;51.826;5.692;2022-11-20T15:12:33;3.60;99.90
41926;DHT22;27615;51.826;5.692;2022-11-20T15:15:00;3.60;99.90
41926;DHT22;27615;51.826;5.692;2022-11-20T15:17:25;3.60;99.90
41926;DHT22;27615;51.826;5.692;2022-11-20T15:19:52;3.60;99.90
41926;DHT22;27615;51.826;5.692;2022-11-20T15:22:18;3.60;99.90
41926;DHT22;27615;51.826;5.692;2022-11-20T15:24:44;3.60;99.90
41926;DHT22;27615;51.826;5.692;2022-11-20T15:27:10;3.60;99.90
41926;DHT22;27615;51.826;5.692;2022-11-20T15:29:36;3.60;99.90
41926;DHT22;27615;51.826;5.692;2022-11-20T15:32:01;3.60;99.90
41926;DHT22;27615;51.826;5.692;2022-11-20T15:34:27;3.60;99.90
41926;DHT22;27615;51.826;5.692;2022-11-20T15:36:52;3.60;99.90
41926;DHT22;27615;51.826;5.692;2022-11-20T15:39:19;3.60;99.90
41926;DHT22;27615;51.826;5.692;2022-11-20T15:41:45;3.70;99.90
41926;DHT22;27615;51.826;5.692;2022-11-20T15:44:11;3.70;99.90
41926;DHT22;27615;51.826;5.692;2022-11-20T15:46:41;3.70;99.90
41926;DHT22;27615;51.826;5.692;2022-11-20T15:49:12;3.70;99.90
41926;DHT22;27615;51.826;5.692;2022-11-20T15:51:41;3.80;99.90
41926;DHT22;27615;51.826;5.692;2022-11-20T15:54:16;3.80;99.90
41926;DHT22;27615;51.826;5.692;2022-11-20T15:56:43;3.90;99.90
41926;DHT22;27615;51.826;5.692;2022-11-20T15:59:08;3.90;99.90
41926;DHT22;27615;51.826;5.692;2022-11-20T16:01:34;3.90;99.90
41926;DHT22;27615;51.826;5.692;2022-11-20T16:04:00;3.90;99.90
41926;DHT22;27615;51.826;5.692;2022-11-20T16:06:26;4.00;99.90
41926;DHT22;27615;51.826;5.692;2022-11-20T16:08:51;4.00;99.90
41926;DHT22;27615;51.826;5.692;2022-11-20T16:11:17;4.00;99.90
41926;DHT22;27615;51.826;5.692;2022-11-20T16:13:43;4.00;99.90
41926;DHT22;27615;51.826;5.692;2022-11-20T16:16:35;4.10;99.90
41926;DHT22;27615;51.826;5.692;2022-11-20T16:19:01;4.10;99.90
41926;DHT22;27615;51.826;5.692;2022-11-20T16:21:27;4.10;99.90
41926;DHT22;27615;51.826;5.692;2022-11-20T16:24:00;4.10;99.90
41926;DHT22;27615;51.826;5.692;2022-11-20T16:26:27;4.10;99.90
41926;DHT22;27615;51.826;5.692;2022-11-20T16:28:53;4.10;99.90
41926;DHT22;27615;51.826;5.692;2022-11-20T16:31:19;4.20;99.90
41926;DHT22;27615;51.826;5.692;2022-11-20T16:33:52;4.20;99.90
41926;DHT22;27615;51.826;5.692;2022-11-20T16:36:19;4.20;99.90
41926;DHT22;27615;51.826;5.692;2022-11-20T16:38:45;4.20;99.90
41926;DHT22;27615;51.826;5.692;2022-11-20T16:41:11;4.20;99.90
41926;DHT22;27615;51.826;5.692;2022-11-20T16:44:17;4.20;99.90
41926;DHT22;27615;51.826;5.692;2022-11-20T16:46:36;4.30;99.90
41926;DHT22;27615;51.826;5.692;2022-11-20T16:49:04;4.20;99.90
41926;DHT22;27615;51.826;5.692;2022-11-20T16:51:33;4.30;99.90
41926;DHT22;27615;51.826;5.692;2022-11-20T16:54:01;4.30;99.90
41926;DHT22;27615;51.826;5.692;2022-11-20T16:56:27;4.30;99.90
41926;DHT22;27615;51.826;5.692;2022-11-20T16:58:55;4.30;99.90
41926;DHT22;27615;51.826;5.692;2022-11-20T17:01:22;4.30;99.90
41926;DHT22;27615;51.826;5.692;2022-11-20T17:04:04;4.40;99.90
41926;DHT22;27615;51.826;5.692;2022-11-20T17:06:35;4.40;99.90
41926;DHT22;27615;51.826;5.692;2022-11-20T17:09:02;4.40;99.90
41926;DHT22;27615;51.826;5.692;2022-11-20T17:11:28;4.40;99.90
41926;DHT22;27615;51.826;5.692;2022-11-20T17:13:55;4.40;99.90
41926;DHT22;27615;51.826;5.692;2022-11-20T17:16:22;4.40;99.90
41926;DHT22;27615;51.826;5.692;2022-11-20T17:18:48;4.40;99.90
41926;DHT22;27615;51.826;5.692;2022-11-20T17:21:14;4.40;99.90
41926;DHT22;27615;51.826;5.692;2022-11-20T17:23:42;4.40;99.90